sensor_id;sensor_type;location;lat;lon;timestamp;temperature;humidity
43249;DHT22;29216;51.248;6.808;2022-09-09T00:02:20;15.90;99.90
43249;DHT22;29216;51.248;6.808;2022-09-09T00:07:48;15.70;99.90
43249;DHT22;29216;51.248;6.808;2022-09-09T00:10:40;15.70;99.90
43249;DHT22;29216;51.248;6.808;2022-09-09T00:16:04;15.60;99.90
43249;DHT22;29216;51.248;6.808;2022-09-09T00:21:13;15.40;99.90
43249;DHT22;29216;51.248;6.808;2022-09-09T00:23:54;15.30;99.90
43249;DHT22;29216;51.248;6.808;2022-09-09T00:28:58;15.20;99.90
43249;DHT22;29216;51.248;6.808;2022-09-09T00:31:28;15.30;99.90
43249;DHT22;29216;51.248;6.808;2022-09-09T00:33:58;15.30;99.90
43249;DHT22;29216;51.248;6.808;2022-09-09T00:36:28;15.30;99.90
43249;DHT22;29216;51.248;6.808;2022-09-09T00:39:00;15.30;99.90
43249;DHT22;29216;51.248;6.808;2022-09-09T00:58:07;15.40;99.90
43249;DHT22;29216;51.248;6.808;2022-09-09T01:00:45;15.50;99.90
43249;DHT22;29216;51.248;6.808;2022-09-09T01:03:32;15.40;99.90
43249;DHT22;29216;51.248;6.808;2022-09-09T01:06:20;15.50;99.90
43249;DHT22;29216;51.248;6.808;2022-09-09T01:13:52;15.70;99.90
43249;DHT22;29216;51.248;6.808;2022-09-09T01:16:19;15.60;99.90
43249;DHT22;29216;51.248;6.808;2022-09-09T01:18:49;15.50;99.90
43249;DHT22;29216;51.248;6.808;2022-09-09T01:21:39;15.50;99.90
43249;DHT22;29216;51.248;6.808;2022-09-09T01:26:43;15.50;99.90
43249;DHT22;29216;51.248;6.808;2022-09-09T01:29:11;15.50;99.90
43249;DHT22;29216;51.248;6.808;2022-09-09T01:32:02;15.50;99.90
43249;DHT22;29216;51.248;6.808;2022-09-09T01:34:34;15.50;99.90
43249;DHT22;29216;51.248;6.808;2022-09-09T01:37:10;15.50;99.90
43249;DHT22;29216;51.248;6.808;2022-09-09T01:39:38;15.50;99.90
43249;DHT22;29216;51.248;6.808;2022-09-09T01:42:30;15.30;99.90
43249;DHT22;29216;51.248;6.808;2022-09-09T01:44:55;15.30;99.90
43249;DHT22;29216;51.248;6.808;2022-09-09T01:47:21;15.20;99.90
43249;DHT22;29216;51.248;6.808;2022-09-09T01:49:46;15.20;99.90
43249;DHT22;29216;51.248;6.808;2022-09-09T01:52:12;15.10;99.90
43249;DHT22;29216;51.248;6.808;2022-09-09T01:54:38;15.10;99.90
43249;DHT22;29216;51.248;6.808;2022-09-09T02:02:36;15.20;99.90
43249;DHT22;29216;51.248;6.808;2022-09-09T02:05:12;15.30;99.90
43249;DHT22;29216;51.248;6.808;2022-09-09T02:07:46;15.40;99.90
43249;DHT22;29216;51.248;6.808;2022-09-09T02:10:32;15.40;99.90
43249;DHT22;29216;51.248;6.808;2022-09-09T02:13:08;15.50;99.90
43249;DHT22;29216;51.248;6.808;2022-09-09T02:18:10;15.70;99.90
43249;DHT22;29216;51.248;6.808;2022-09-09T02:20:39;15.80;99.90
43249;DHT22;29216;51.248;6.808;2022-09-09T02:23:06;15.90;99.90
43249;DHT22;29216;51.248;6.808;2022-09-09T02:25:34;15.90;99.90
43249;DHT22;29216;51.248;6.808;2022-09-09T02:28:02;16.00;99.90
43249;DHT22;29216;51.248;6.808;2022-09-09T02:30:32;16.00;99.90
43249;DHT22;29216;51.248;6.808;2022-09-09T02:33:01;16.10;99.90
43249;DHT22;29216;51.248;6.808;2022-09-09T02:35:30;16.20;99.90
43249;DHT22;29216;51.248;6.808;2022-09-09T02:38:01;16.20;99.90
43249;DHT22;29216;51.248;6.808;2022-09-09T02:40:29;16.20;99.90
43249;DHT22;29216;51.248;6.808;2022-09-09T02:42:55;16.30;99.90
43249;DHT22;29216;51.248;6.808;2022-09-09T02:45:25;16.30;99.90
43249;DHT22;29216;51.248;6.808;2022-09-09T02:47:54;16.30;99.90
43249;DHT22;29216;51.248;6.808;2022-09-09T02:50:38;16.30;99.90
43249;DHT22;29216;51.248;6.808;2022-09-09T02:53:19;16.30;99.90
43249;DHT22;29216;51.248;6.808;2022-09-09T02:56:08;16.40;99.90
43249;DHT22;29216;51.248;6.808;2022-09-09T02:58:35;16.40;99.90
43249;DHT22;29216;51.248;6.808;2022-09-09T03:01:01;16.50;99.90
43249;DHT22;29216;51.248;6.808;2022-09-09T03:03:28;16.50;99.90
43249;DHT22;29216;51.248;6.808;2022-09-09T03:05:54;16.40;99.90
43249;DHT22;29216;51.248;6.808;2022-09-09T03:08:20;16.40;99.90
43249;DHT22;29216;51.248;6.808;2022-09-09T03:10:45;16.50;99.90
43249;DHT22;29216;51.248;6.808;2022-09-09T03:13:11;16.50;99.90
43249;DHT22;29216;51.248;6.808;2022-09-09T03:15:38;16.40;99.90
43249;DHT22;29216;51.248;6.808;2022-09-09T03:18:03;16.40;99.90
43249;DHT22;29216;51.248;6.808;2022-09-09T03:20:30;16.40;99.90
43249;DHT22;29216;51.248;6.808;2022-09-09T03:22:56;16.40;99.90
43249;DHT22;29216;51.248;6.808;2022-09-09T03:25:22;16.40;99.90
43249;DHT22;29216;51.248;6.808;2022-09-09T03:27:51;16.40;99.90
43249;DHT22;29216;51.248;6.808;2022-09-09T03:30:20;16.40;99.90
43249;DHT22;29216;51.248;6.808;2022-09-09T03:32:46;16.40;99.90
43249;DHT22;29216;51.248;6.808;2022-09-09T03:35:11;16.40;99.90
43249;DHT22;29216;51.248;6.808;2022-09-09T03:37:37;16.40;99.90
43249;DHT22;29216;51.248;6.808;2022-09-09T03:40:04;16.40;99.90
43249;DHT22;29216;51.248;6.808;2022-09-09T03:42:30;16.40;99.90
43249;DHT22;29216;51.248;6.808;2022-09-09T03:44:57;16.50;99.90
43249;DHT22;29216;51.248;6.808;2022-09-09T03:47:23;16.50;99.90
43249;DHT22;29216;51.248;6.808;2022-09-09T03:49:49;16.50;99.90
43249;DHT22;29216;51.248;6.808;2022-09-09T03:52:15;16.50;99.90
43249;DHT22;29216;51.248;6.808;2022-09-09T03:54:41;16.40;99.90
43249;DHT22;29216;51.248;6.808;2022-09-09T03:57:08;16.40;99.90
43249;DHT22;29216;51.248;6.808;2022-09-09T03:59:34;16.40;99.90
43249;DHT22;29216;51.248;6.808;2022-09-09T04:02:00;16.50;99.90
43249;DHT22;29216;51.248;6.808;2022-09-09T04:04:26;16.30;99.90
43249;DHT22;29216;51.248;6.808;2022-09-09T04:06:53;16.30;99.90
43249;DHT22;29216;51.248;6.808;2022-09-09T04:09:18;16.20;99.90
43249;DHT22;29216;51.248;6.808;2022-09-09T04:11:44;16.10;99.90
43249;DHT22;29216;51.248;6.808;2022-09-09T04:14:11;16.00;99.90
43249;DHT22;29216;51.248;6.808;2022-09-09T04:16:38;15.90;99.90
43249;DHT22;29216;51.248;6.808;2022-09-09T04:19:04;15.90;99.90
43249;DHT22;29216;51.248;6.808;2022-09-09T04:21:32;15.90;99.90
43249;DHT22;29216;51.248;6.808;2022-09-09T04:23:57;16.00;99.90
43249;DHT22;29216;51.248;6.808;2022-09-09T04:26:23;16.00;99.90
43249;DHT22;29216;51.248;6.808;2022-09-09T04:28:49;16.00;99.90
43249;DHT22;29216;51.248;6.808;2022-09-09T04:31:18;16.00;99.90
43249;DHT22;29216;51.248;6.808;2022-09-09T04:33:45;16.00;99.90
43249;DHT22;29216;51.248;6.808;2022-09-09T04:36:12;16.10;99.90
43249;DHT22;29216;51.248;6.808;2022-09-09T04:38:38;16.10;99.90
43249;DHT22;29216;51.248;6.808;2022-09-09T04:41:05;16.10;99.90
43249;DHT22;29216;51.248;6.808;2022-09-09T04:43:30;16.20;99.90
43249;DHT22;29216;51.248;6.808;2022-09-09T04:45:56;16.20;99.90
43249;DHT22;29216;51.248;6.808;2022-09-09T04:48:22;16.30;99.90
43249;DHT22;29216;51.248;6.808;2022-09-09T04:51:14;16.30;99.90
43249;DHT22;29216;51.248;6.808;2022-09-09T04:53:40;16.30;99.90
43249;DHT22;29216;51.248;6.808;2022-09-09T04:58:33;16.40;99.90
43249;DHT22;29216;51.248;6.808;2022-09-09T05:01:13;16.40;99.90
43249;DHT22;29216;51.248;6.808;2022-09-09T05:03:39;16.50;99.90
43249;DHT22;29216;51.248;6.808;2022-09-09T05:06:10;16.50;99.90
43249;DHT22;29216;51.248;6.808;2022-09-09T05:08:37;16.50;99.90
43249;DHT22;29216;51.248;6.808;2022-09-09T05:13:48;16.50;99.90
43249;DHT22;29216;51.248;6.808;2022-09-09T05:16:16;16.60;99.90
43249;DHT22;29216;51.248;6.808;2022-09-09T05:18:41;16.60;99.90
43249;DHT22;29216;51.248;6.808;2022-09-09T05:21:12;16.60;99.90
43249;DHT22;29216;51.248;6.808;2022-09-09T05:23:38;16.60;99.90
43249;DHT22;29216;51.248;6.808;2022-09-09T05:26:05;16.70;99.90
43249;DHT22;29216;51.248;6.808;2022-09-09T05:28:33;16.80;99.90
43249;DHT22;29216;51.248;6.808;2022-09-09T05:31:09;16.80;99.90
43249;DHT22;29216;51.248;6.808;2022-09-09T05:33:36;16.80;99.90
43249;DHT22;29216;51.248;6.808;2022-09-09T05:36:07;16.90;99.90
43249;DHT22;29216;51.248;6.808;2022-09-09T05:38:34;16.90;99.90
43249;DHT22;29216;51.248;6.808;2022-09-09T05:41:01;16.90;99.90
43249;DHT22;29216;51.248;6.808;2022-09-09T05:43:28;17.00;99.90
43249;DHT22;29216;51.248;6.808;2022-09-09T05:48:35;17.10;99.90
43249;DHT22;29216;51.248;6.808;2022-09-09T05:51:01;17.10;99.90
43249;DHT22;29216;51.248;6.808;2022-09-09T05:53:28;17.20;99.90
43249;DHT22;29216;51.248;6.808;2022-09-09T05:58:27;17.40;99.90
43249;DHT22;29216;51.248;6.808;2022-09-09T06:00:52;17.50;99.90
43249;DHT22;29216;51.248;6.808;2022-09-09T06:03:20;17.60;99.90
43249;DHT22;29216;51.248;6.808;2022-09-09T06:05:57;17.70;99.90
43249;DHT22;29216;51.248;6.808;2022-09-09T06:08:22;17.80;99.90
43249;DHT22;29216;51.248;6.808;2022-09-09T06:10:48;17.80;99.90
43249;DHT22;29216;51.248;6.808;2022-09-09T06:13:14;18.00;99.90
43249;DHT22;29216;51.248;6.808;2022-09-09T06:15:39;18.00;99.90
43249;DHT22;29216;51.248;6.808;2022-09-09T06:18:15;18.10;99.90
43249;DHT22;29216;51.248;6.808;2022-09-09T06:20:52;18.10;99.90
43249;DHT22;29216;51.248;6.808;2022-09-09T06:23:19;18.20;99.90
43249;DHT22;29216;51.248;6.808;2022-09-09T06:25:45;18.30;99.90
43249;DHT22;29216;51.248;6.808;2022-09-09T06:28:11;18.30;99.90
43249;DHT22;29216;51.248;6.808;2022-09-09T06:30:37;18.30;99.90
43249;DHT22;29216;51.248;6.808;2022-09-09T06:33:02;18.40;99.90
43249;DHT22;29216;51.248;6.808;2022-09-09T06:35:29;18.40;99.90
43249;DHT22;29216;51.248;6.808;2022-09-09T06:37:54;18.40;99.90
43249;DHT22;29216;51.248;6.808;2022-09-09T06:40:20;18.50;99.90
43249;DHT22;29216;51.248;6.808;2022-09-09T06:42:45;18.50;99.90
43249;DHT22;29216;51.248;6.808;2022-09-09T06:45:11;18.50;99.90
43249;DHT22;29216;51.248;6.808;2022-09-09T06:47:37;18.50;99.90
43249;DHT22;29216;51.248;6.808;2022-09-09T06:50:03;18.50;99.90
43249;DHT22;29216;51.248;6.808;2022-09-09T06:52:29;18.80;99.90
43249;DHT22;29216;51.248;6.808;2022-09-09T06:54:54;19.20;99.90
43249;DHT22;29216;51.248;6.808;2022-09-09T06:57:20;19.40;99.90
43249;DHT22;29216;51.248;6.808;2022-09-09T06:59:46;19.40;99.90
43249;DHT22;29216;51.248;6.808;2022-09-09T07:02:11;19.40;99.90
43249;DHT22;29216;51.248;6.808;2022-09-09T07:04:37;19.30;99.90
43249;DHT22;29216;51.248;6.808;2022-09-09T07:07:02;19.20;99.90
43249;DHT22;29216;51.248;6.808;2022-09-09T07:09:28;19.20;99.90
43249;DHT22;29216;51.248;6.808;2022-09-09T07:11:54;19.30;99.90
43249;DHT22;29216;51.248;6.808;2022-09-09T07:14:20;19.30;99.90
43249;DHT22;29216;51.248;6.808;2022-09-09T07:16:47;19.30;99.90
43249;DHT22;29216;51.248;6.808;2022-09-09T07:19:13;19.40;99.90
43249;DHT22;29216;51.248;6.808;2022-09-09T07:21:40;19.40;99.90
43249;DHT22;29216;51.248;6.808;2022-09-09T07:24:06;19.40;99.90
43249;DHT22;29216;51.248;6.808;2022-09-09T07:26:33;19.40;99.90
43249;DHT22;29216;51.248;6.808;2022-09-09T07:28:59;19.30;99.90
43249;DHT22;29216;51.248;6.808;2022-09-09T07:31:30;19.30;99.90
43249;DHT22;29216;51.248;6.808;2022-09-09T07:33:56;19.30;99.90
43249;DHT22;29216;51.248;6.808;2022-09-09T07:36:23;19.30;99.90
43249;DHT22;29216;51.248;6.808;2022-09-09T07:38:58;19.30;99.90
43249;DHT22;29216;51.248;6.808;2022-09-09T07:41:29;19.40;99.90
43249;DHT22;29216;51.248;6.808;2022-09-09T07:43:56;19.40;99.90
43249;DHT22;29216;51.248;6.808;2022-09-09T07:46:23;19.40;99.90
43249;DHT22;29216;51.248;6.808;2022-09-09T07:48:52;19.80;99.90
43249;DHT22;29216;51.248;6.808;2022-09-09T07:51:22;20.10;99.90
43249;DHT22;29216;51.248;6.808;2022-09-09T07:53:51;20.30;99.90
43249;DHT22;29216;51.248;6.808;2022-09-09T07:56:17;20.30;99.90
43249;DHT22;29216;51.248;6.808;2022-09-09T07:58:45;20.30;99.90
43249;DHT22;29216;51.248;6.808;2022-09-09T08:01:17;20.30;99.90
43249;DHT22;29216;51.248;6.808;2022-09-09T08:03:47;20.30;99.90
43249;DHT22;29216;51.248;6.808;2022-09-09T08:06:17;20.30;99.90
43249;DHT22;29216;51.248;6.808;2022-09-09T08:08:42;20.30;99.90
43249;DHT22;29216;51.248;6.808;2022-09-09T08:11:10;20.30;99.90
43249;DHT22;29216;51.248;6.808;2022-09-09T08:13:37;20.30;99.90
43249;DHT22;29216;51.248;6.808;2022-09-09T08:18:31;20.30;99.90
43249;DHT22;29216;51.248;6.808;2022-09-09T08:20:57;20.30;99.90
43249;DHT22;29216;51.248;6.808;2022-09-09T08:23:22;20.30;99.90
43249;DHT22;29216;51.248;6.808;2022-09-09T08:25:48;20.30;99.90
43249;DHT22;29216;51.248;6.808;2022-09-09T08:28:15;20.30;99.90
43249;DHT22;29216;51.248;6.808;2022-09-09T08:30:41;20.40;99.90
43249;DHT22;29216;51.248;6.808;2022-09-09T08:33:09;20.60;99.90
43249;DHT22;29216;51.248;6.808;2022-09-09T08:35:34;20.90;99.90
43249;DHT22;29216;51.248;6.808;2022-09-09T08:38:00;21.10;99.90
43249;DHT22;29216;51.248;6.808;2022-09-09T08:40:29;21.20;99.90
43249;DHT22;29216;51.248;6.808;2022-09-09T08:42:57;21.30;99.90
43249;DHT22;29216;51.248;6.808;2022-09-09T08:45:35;21.30;99.90
43249;DHT22;29216;51.248;6.808;2022-09-09T08:48:06;21.40;99.90
43249;DHT22;29216;51.248;6.808;2022-09-09T08:50:39;21.50;99.90
43249;DHT22;29216;51.248;6.808;2022-09-09T08:53:14;21.60;99.90
43249;DHT22;29216;51.248;6.808;2022-09-09T08:56:03;21.50;99.90
43249;DHT22;29216;51.248;6.808;2022-09-09T08:58:33;21.50;99.90
43249;DHT22;29216;51.248;6.808;2022-09-09T09:09:38;21.30;99.90
43249;DHT22;29216;51.248;6.808;2022-09-09T09:12:19;21.20;99.90
43249;DHT22;29216;51.248;6.808;2022-09-09T09:14:47;21.30;99.90
43249;DHT22;29216;51.248;6.808;2022-09-09T09:17:19;21.20;99.90
43249;DHT22;29216;51.248;6.808;2022-09-09T09:19:47;21.20;99.90
43249;DHT22;29216;51.248;6.808;2022-09-09T09:22:26;21.20;99.90
43249;DHT22;29216;51.248;6.808;2022-09-09T09:27:48;20.90;99.90
43249;DHT22;29216;51.248;6.808;2022-09-09T09:30:17;20.90;99.90
43249;DHT22;29216;51.248;6.808;2022-09-09T09:32:59;20.80;99.90
43249;DHT22;29216;51.248;6.808;2022-09-09T09:35:25;20.80;99.90
43249;DHT22;29216;51.248;6.808;2022-09-09T09:37:52;20.80;99.90
43249;DHT22;29216;51.248;6.808;2022-09-09T09:40:19;20.80;99.90
43249;DHT22;29216;51.248;6.808;2022-09-09T09:42:57;20.80;99.90
43249;DHT22;29216;51.248;6.808;2022-09-09T09:45:33;21.10;99.90
43249;DHT22;29216;51.248;6.808;2022-09-09T09:48:04;21.40;99.90
43249;DHT22;29216;51.248;6.808;2022-09-09T09:50:32;21.90;99.90
43249;DHT22;29216;51.248;6.808;2022-09-09T09:53:03;22.30;99.90
43249;DHT22;29216;51.248;6.808;2022-09-09T09:55:33;22.70;99.90
43249;DHT22;29216;51.248;6.808;2022-09-09T09:58:04;22.90;99.90
43249;DHT22;29216;51.248;6.808;2022-09-09T10:00:31;23.00;99.90
43249;DHT22;29216;51.248;6.808;2022-09-09T10:02:59;23.00;99.90
43249;DHT22;29216;51.248;6.808;2022-09-09T10:05:28;22.90;99.90
43249;DHT22;29216;51.248;6.808;2022-09-09T10:08:14;22.90;99.90
43249;DHT22;29216;51.248;6.808;2022-09-09T10:13:28;22.90;99.90
43249;DHT22;29216;51.248;6.808;2022-09-09T10:29:40;23.40;99.90
43249;DHT22;29216;51.248;6.808;2022-09-09T10:32:33;23.40;99.90
43249;DHT22;29216;51.248;6.808;2022-09-09T10:40:38;23.50;99.90
43249;DHT22;29216;51.248;6.808;2022-09-09T10:51:51;22.90;99.90
43249;DHT22;29216;51.248;6.808;2022-09-09T10:56:54;23.20;99.90
43249;DHT22;29216;51.248;6.808;2022-09-09T11:02:45;23.10;99.90
43249;DHT22;29216;51.248;6.808;2022-09-09T11:05:18;23.00;99.90
43249;DHT22;29216;51.248;6.808;2022-09-09T11:07:57;22.90;99.90
43249;DHT22;29216;51.248;6.808;2022-09-09T11:13:25;23.10;99.90
43249;DHT22;29216;51.248;6.808;2022-09-09T11:15:58;23.30;99.90
43249;DHT22;29216;51.248;6.808;2022-09-09T11:18:29;23.40;99.90
43249;DHT22;29216;51.248;6.808;2022-09-09T11:21:00;23.20;99.90
43249;DHT22;29216;51.248;6.808;2022-09-09T11:23:37;22.90;99.90
43249;DHT22;29216;51.248;6.808;2022-09-09T11:26:06;22.40;99.90
43249;DHT22;29216;51.248;6.808;2022-09-09T11:31:57;21.80;99.90
43249;DHT22;29216;51.248;6.808;2022-09-09T11:37:50;21.60;99.90
43249;DHT22;29216;51.248;6.808;2022-09-09T11:40:24;21.60;99.90
43249;DHT22;29216;51.248;6.808;2022-09-09T11:43:05;21.80;99.90
43249;DHT22;29216;51.248;6.808;2022-09-09T11:45:34;21.90;99.90
43249;DHT22;29216;51.248;6.808;2022-09-09T11:48:02;22.20;99.90
43249;DHT22;29216;51.248;6.808;2022-09-09T11:50:58;22.40;99.90
43249;DHT22;29216;51.248;6.808;2022-09-09T11:53:24;22.60;99.90
43249;DHT22;29216;51.248;6.808;2022-09-09T11:56:10;22.70;99.90
43249;DHT22;29216;51.248;6.808;2022-09-09T11:58:43;22.70;99.90
43249;DHT22;29216;51.248;6.808;2022-09-09T12:01:16;22.70;99.90
43249;DHT22;29216;51.248;6.808;2022-09-09T12:04:01;22.70;99.90
43249;DHT22;29216;51.248;6.808;2022-09-09T12:06:32;22.60;99.90
43249;DHT22;29216;51.248;6.808;2022-09-09T12:09:19;22.40;99.90
43249;DHT22;29216;51.248;6.808;2022-09-09T12:11:48;22.20;99.90
43249;DHT22;29216;51.248;6.808;2022-09-09T12:14:43;22.10;99.90
43249;DHT22;29216;51.248;6.808;2022-09-09T12:19:41;21.80;99.90
43249;DHT22;29216;51.248;6.808;2022-09-09T12:33:12;22.70;99.90
43249;DHT22;29216;51.248;6.808;2022-09-09T12:35:40;22.80;99.90
43249;DHT22;29216;51.248;6.808;2022-09-09T12:38:13;22.80;99.90
43249;DHT22;29216;51.248;6.808;2022-09-09T12:40:40;22.80;99.90
43249;DHT22;29216;51.248;6.808;2022-09-09T12:43:21;22.70;99.90
43249;DHT22;29216;51.248;6.808;2022-09-09T12:45:49;22.70;99.90
43249;DHT22;29216;51.248;6.808;2022-09-09T12:48:18;22.80;99.90
43249;DHT22;29216;51.248;6.808;2022-09-09T12:50:49;23.00;99.90
43249;DHT22;29216;51.248;6.808;2022-09-09T12:56:25;23.20;99.90
43249;DHT22;29216;51.248;6.808;2022-09-09T12:58:47;23.10;99.90
43249;DHT22;29216;51.248;6.808;2022-09-09T13:01:28;23.00;99.90
43249;DHT22;29216;51.248;6.808;2022-09-09T13:03:54;23.00;99.90
43249;DHT22;29216;51.248;6.808;2022-09-09T13:06:27;22.80;99.90
43249;DHT22;29216;51.248;6.808;2022-09-09T13:08:55;22.80;99.90
43249;DHT22;29216;51.248;6.808;2022-09-09T13:13:55;22.60;99.90
43249;DHT22;29216;51.248;6.808;2022-09-09T13:16:33;22.60;99.90
43249;DHT22;29216;51.248;6.808;2022-09-09T13:19:14;22.50;99.90
43249;DHT22;29216;51.248;6.808;2022-09-09T13:21:41;22.60;99.90
43249;DHT22;29216;51.248;6.808;2022-09-09T13:24:40;22.60;99.90
43249;DHT22;29216;51.248;6.808;2022-09-09T13:29:54;22.30;99.90
43249;DHT22;29216;51.248;6.808;2022-09-09T13:32:21;22.10;99.90
43249;DHT22;29216;51.248;6.808;2022-09-09T13:34:51;22.10;99.90
43249;DHT22;29216;51.248;6.808;2022-09-09T13:37:36;22.20;99.90
43249;DHT22;29216;51.248;6.808;2022-09-09T13:40:04;22.40;99.90
43249;DHT22;29216;51.248;6.808;2022-09-09T13:42:39;22.40;99.90
43249;DHT22;29216;51.248;6.808;2022-09-09T13:45:18;22.40;99.90
43249;DHT22;29216;51.248;6.808;2022-09-09T13:47:46;22.40;99.90
43249;DHT22;29216;51.248;6.808;2022-09-09T13:52:53;22.70;99.90
43249;DHT22;29216;51.248;6.808;2022-09-09T13:55:20;22.80;99.90
43249;DHT22;29216;51.248;6.808;2022-09-09T13:58:00;22.80;99.90
43249;DHT22;29216;51.248;6.808;2022-09-09T14:00:28;22.80;99.90
43249;DHT22;29216;51.248;6.808;2022-09-09T14:02:54;22.60;99.90
43249;DHT22;29216;51.248;6.808;2022-09-09T14:05:21;22.50;99.90
43249;DHT22;29216;51.248;6.808;2022-09-09T14:07:48;22.40;99.90
43249;DHT22;29216;51.248;6.808;2022-09-09T14:10:14;22.20;99.90
43249;DHT22;29216;51.248;6.808;2022-09-09T14:12:39;22.00;99.90
43249;DHT22;29216;51.248;6.808;2022-09-09T14:15:06;22.00;99.90
43249;DHT22;29216;51.248;6.808;2022-09-09T14:17:32;22.10;99.90
43249;DHT22;29216;51.248;6.808;2022-09-09T14:19:58;22.10;99.90
43249;DHT22;29216;51.248;6.808;2022-09-09T14:22:25;22.20;99.90
43249;DHT22;29216;51.248;6.808;2022-09-09T14:24:51;22.30;99.90
43249;DHT22;29216;51.248;6.808;2022-09-09T14:27:17;22.40;99.90
43249;DHT22;29216;51.248;6.808;2022-09-09T14:29:44;22.30;99.90
43249;DHT22;29216;51.248;6.808;2022-09-09T14:32:10;22.30;99.90
43249;DHT22;29216;51.248;6.808;2022-09-09T14:34:36;22.30;99.90
43249;DHT22;29216;51.248;6.808;2022-09-09T14:37:02;22.20;99.90
43249;DHT22;29216;51.248;6.808;2022-09-09T14:39:28;22.00;99.90
43249;DHT22;29216;51.248;6.808;2022-09-09T14:41:55;21.60;99.90
43249;DHT22;29216;51.248;6.808;2022-09-09T14:44:20;21.20;99.90
43249;DHT22;29216;51.248;6.808;2022-09-09T14:46:47;20.70;99.90
43249;DHT22;29216;51.248;6.808;2022-09-09T14:49:15;20.30;99.90
43249;DHT22;29216;51.248;6.808;2022-09-09T14:51:41;20.10;99.90
43249;DHT22;29216;51.248;6.808;2022-09-09T14:54:06;19.70;99.90
43249;DHT22;29216;51.248;6.808;2022-09-09T14:56:32;19.30;99.90
43249;DHT22;29216;51.248;6.808;2022-09-09T14:59:02;18.90;99.90
43249;DHT22;29216;51.248;6.808;2022-09-09T15:01:29;18.50;99.90
43249;DHT22;29216;51.248;6.808;2022-09-09T15:03:59;18.20;99.90
43249;DHT22;29216;51.248;6.808;2022-09-09T15:06:26;17.80;99.90
43249;DHT22;29216;51.248;6.808;2022-09-09T15:08:53;17.60;99.90
43249;DHT22;29216;51.248;6.808;2022-09-09T15:11:19;17.40;99.90
43249;DHT22;29216;51.248;6.808;2022-09-09T15:13:45;17.20;99.90
43249;DHT22;29216;51.248;6.808;2022-09-09T15:16:13;17.00;99.90
43249;DHT22;29216;51.248;6.808;2022-09-09T15:18:39;16.90;99.90
43249;DHT22;29216;51.248;6.808;2022-09-09T15:21:09;16.90;99.90
43249;DHT22;29216;51.248;6.808;2022-09-09T15:23:35;16.80;99.90
43249;DHT22;29216;51.248;6.808;2022-09-09T15:26:01;16.80;99.90
43249;DHT22;29216;51.248;6.808;2022-09-09T15:28:28;16.80;99.90
43249;DHT22;29216;51.248;6.808;2022-09-09T15:30:54;16.90;99.90
43249;DHT22;29216;51.248;6.808;2022-09-09T15:33:21;17.00;99.90
43249;DHT22;29216;51.248;6.808;2022-09-09T15:35:47;17.10;99.90
43249;DHT22;29216;51.248;6.808;2022-09-09T15:38:13;17.20;99.90
43249;DHT22;29216;51.248;6.808;2022-09-09T15:40:39;17.30;99.90
43249;DHT22;29216;51.248;6.808;2022-09-09T15:43:06;17.40;99.90
43249;DHT22;29216;51.248;6.808;2022-09-09T15:45:33;17.50;99.90
43249;DHT22;29216;51.248;6.808;2022-09-09T15:48:00;17.60;99.90
43249;DHT22;29216;51.248;6.808;2022-09-09T15:50:26;17.70;99.90
43249;DHT22;29216;51.248;6.808;2022-09-09T15:52:52;17.70;99.90
43249;DHT22;29216;51.248;6.808;2022-09-09T15:55:19;17.80;99.90
43249;DHT22;29216;51.248;6.808;2022-09-09T15:57:45;17.80;99.90
43249;DHT22;29216;51.248;6.808;2022-09-09T16:00:14;17.70;99.90
43249;DHT22;29216;51.248;6.808;2022-09-09T16:02:40;17.60;99.90
43249;DHT22;29216;51.248;6.808;2022-09-09T16:05:06;17.40;99.90
43249;DHT22;29216;51.248;6.808;2022-09-09T16:07:31;17.20;99.90
43249;DHT22;29216;51.248;6.808;2022-09-09T16:09:57;17.10;99.90
43249;DHT22;29216;51.248;6.808;2022-09-09T16:12:23;17.00;99.90
43249;DHT22;29216;51.248;6.808;2022-09-09T16:14:48;17.00;99.90
43249;DHT22;29216;51.248;6.808;2022-09-09T16:17:15;17.00;99.90
43249;DHT22;29216;51.248;6.808;2022-09-09T16:19:41;16.90;99.90
43249;DHT22;29216;51.248;6.808;2022-09-09T16:22:06;16.90;99.90
43249;DHT22;29216;51.248;6.808;2022-09-09T16:24:32;16.90;99.90
43249;DHT22;29216;51.248;6.808;2022-09-09T16:26:58;16.90;99.90
43249;DHT22;29216;51.248;6.808;2022-09-09T16:29:24;16.80;99.90
43249;DHT22;29216;51.248;6.808;2022-09-09T16:31:52;16.70;99.90
43249;DHT22;29216;51.248;6.808;2022-09-09T16:34:19;16.60;99.90
43249;DHT22;29216;51.248;6.808;2022-09-09T16:36:46;16.50;99.90
43249;DHT22;29216;51.248;6.808;2022-09-09T16:39:14;16.50;99.90
43249;DHT22;29216;51.248;6.808;2022-09-09T16:41:41;16.40;99.90
43249;DHT22;29216;51.248;6.808;2022-09-09T16:44:10;16.30;99.90
43249;DHT22;29216;51.248;6.808;2022-09-09T16:46:39;16.30;99.90
43249;DHT22;29216;51.248;6.808;2022-09-09T16:49:06;16.20;99.90
43249;DHT22;29216;51.248;6.808;2022-09-09T16:51:35;16.20;99.90
43249;DHT22;29216;51.248;6.808;2022-09-09T16:54:03;16.20;99.90
43249;DHT22;29216;51.248;6.808;2022-09-09T16:56:31;16.20;99.90
43249;DHT22;29216;51.248;6.808;2022-09-09T16:59:04;16.20;99.90
43249;DHT22;29216;51.248;6.808;2022-09-09T17:01:35;16.20;99.90
43249;DHT22;29216;51.248;6.808;2022-09-09T17:04:05;16.10;99.90
43249;DHT22;29216;51.248;6.808;2022-09-09T17:06:31;16.10;99.90
43249;DHT22;29216;51.248;6.808;2022-09-09T17:09:01;16.10;99.90
43249;DHT22;29216;51.248;6.808;2022-09-09T17:11:28;16.10;99.90
43249;DHT22;29216;51.248;6.808;2022-09-09T17:13:54;16.10;99.90
43249;DHT22;29216;51.248;6.808;2022-09-09T17:16:21;16.10;99.90
43249;DHT22;29216;51.248;6.808;2022-09-09T17:18:51;16.20;99.90
43249;DHT22;29216;51.248;6.808;2022-09-09T17:21:24;16.20;99.90
43249;DHT22;29216;51.248;6.808;2022-09-09T17:23:51;16.20;99.90
43249;DHT22;29216;51.248;6.808;2022-09-09T17:26:19;16.10;99.90
43249;DHT22;29216;51.248;6.808;2022-09-09T17:28:46;16.10;99.90
43249;DHT22;29216;51.248;6.808;2022-09-09T17:31:15;16.10;99.90
43249;DHT22;29216;51.248;6.808;2022-09-09T17:33:47;16.10;99.90
43249;DHT22;29216;51.248;6.808;2022-09-09T17:36:25;16.10;99.90
43249;DHT22;29216;51.248;6.808;2022-09-09T17:38:51;16.10;99.90
43249;DHT22;29216;51.248;6.808;2022-09-09T17:41:37;16.20;99.90
43249;DHT22;29216;51.248;6.808;2022-09-09T17:44:04;16.20;99.90
43249;DHT22;29216;51.248;6.808;2022-09-09T17:46:32;16.10;99.90
43249;DHT22;29216;51.248;6.808;2022-09-09T17:49:02;16.20;99.90
43249;DHT22;29216;51.248;6.808;2022-09-09T17:51:30;16.20;99.90
43249;DHT22;29216;51.248;6.808;2022-09-09T17:53:59;16.20;99.90
43249;DHT22;29216;51.248;6.808;2022-09-09T17:56:26;16.30;99.90
43249;DHT22;29216;51.248;6.808;2022-09-09T17:58:53;16.30;99.90
43249;DHT22;29216;51.248;6.808;2022-09-09T18:01:24;16.30;99.90
43249;DHT22;29216;51.248;6.808;2022-09-09T18:03:53;16.20;99.90